• Join FlightAware (Why Join?)
  • Login
  • US Flag 
03:34AM EDT


 

Airport Tracker/Info


-or-


 

Live Flight TrackerFlight Track Log ✈ AAL2222 ✈ 26-Dec-2013 ✈ KAUS - KDFW

Flight Track Log - Related Links

Times and Time Zones

All times are in EST time to prevent confusion due to time zone crossing. See the AAL2222 flight status page for this flight to view local times or setup timezone preferences in your user account.

Time Position Orientation Groundspeed Altitude Reporting Facility
EST Latitude Longitude Course Direction KTS MPH feet Rate Location/Type
03:41PM 30.3663 -97.6308 41° Northeast  Level Estimated
03:42PM 30.4234 -97.5564 329° Northwest  Level FlightAware Approximate
03:42PM 30.3792 -97.7683 337° Northwest 265 305 10,100  Level Houston Center
03:43PM 30.4984 -97.6088 329° Northwest  Level FlightAware Approximate
03:43PM 30.4569 -97.8039 338° Northwest 289 333 12,000  Level Houston Center
03:44PM 30.5706 -97.6659 323° Northwest  Level FlightAware Approximate
03:44PM 30.5497 -97.8447 339° North 338 389 13,700  Level Houston Center
03:45PM 30.6417 -97.7281 323° Northwest  Level FlightAware Approximate
03:45PM 30.6417 -97.8911 337° Northwest 351 404 15,300  Level Houston Center
03:46PM 30.7162 -97.7829 319° Northwest  Level FlightAware Approximate
03:46PM 30.7397 -97.9328 340° North 363 418 17,100  Level Houston Center
03:47PM 30.8406 -97.9706 342° North 372 428 19,300 2,280 Climbing Houston Center
03:48PM 30.9583 -98.0256 338° Northwest 382 440 21,900 1,680 Climbing Houston Center
03:49PM 31.0650 -98.0642 343° North 391 450 22,900 480 Climbing Houston Center
03:50PM 31.1706 -98.1136 338° Northwest 401 461 23,000  Climbing Houston Center
03:51PM 31.2742 -98.1594 339° North 396 456 23,000  Level Houston Center
03:52PM 31.3894 -98.1286 13° North 415 478 23,000  Level Houston Center
03:53PM 31.4981 -98.0750 23° Northeast 420 483 23,000  Level Houston Center
03:54PM 31.6258 -98.0153 22° Northeast 424 488 23,000  Level Fort Worth Center
03:55PM 31.7442 -97.9561 23° Northeast 452 520 23,000 -600 Level Fort Worth Center
03:56PM 31.8628 -97.8989 22° Northeast 454 522 21,800 -2,340 Descending Fort Worth Center
03:57PM 31.9906 -97.8364 23° Northeast 443 510 18,200 -2,820 Descending Fort Worth Center
03:58PM 32.1083 -97.7775 23° Northeast 422 486 16,000 -2,400 Descending Fort Worth Center
03:59PM 32.2111 -97.7292 22° Northeast 399 459 13,300 -2,280 Descending Fort Worth Center
04:00PM 32.3158 -97.6764 23° Northeast 377 434 11,300 -1,380 Descending Fort Worth Center
04:01PM 32.3831 -97.6119 39° Northeast 309 356 10,500 -1,140 Descending Fort Worth Center
04:03PM 32.4439 -97.5406 45° Northeast 289 333 9,000 -1,500 Descending Fort Worth Center
04:04PM 32.4864 -97.4658 56° Northeast 274 315 7,400 -1,500 Descending Fort Worth Center
04:05PM 32.5228 -97.3769 64° Northeast 278 320 6,000 -1,080 Descending Fort Worth Center
04:06PM 32.5536 -97.2942 66° East 277 319 5,200 -540 Descending Fort Worth Center
04:07PM 32.5869 -97.2139 64° Northeast 273 314 5,000 -420 Descending Fort Worth Center
04:08PM 32.6206 -97.1314 64° Northeast 261 300 4,400 -720 Descending Fort Worth Center
04:08PM 32.6500 -97.0667 62° Northeast 254 292 3,800 -720 Descending Dallas / Fort Worth TRACON
04:09PM 32.7000 -97.0333 29° Northeast 251 289 3,200 -480 Descending Dallas / Fort Worth TRACON
04:10PM 32.7667 -97.0167 12° North 193 222 2,900 -720 Descending Dallas / Fort Worth TRACON
04:11PM 32.8167 -97.0167 360° North 153 176 1,800 -900 Descending Dallas / Fort Worth TRACON
04:12PM 32.8500 -97.0167 360° North 142 163 1,100 -720 Descending Dallas / Fort Worth TRACON